Time;durP1;ratioP1;P1;durP2;ratioP2;P2;SDS_P1;SDS_P2;PMS_P1;PMS_P2;Temp;Humidity;BMP_temperature;BMP_pressure;BME280_temperature;BME280_humidity;BME280_pressure;Samples;Min_cycle;Max_cycle;Signal;HPM_P1;HPM_P2
2022/11/06 00:01:26;;;;;;;;;;;16.90;50.40;;;;;;8357663;28;19921;-41
2022/11/06 00:09:46;;;;;;;;;;;16.90;50.40;;;;;;8330517;28;20444;-41
2022/11/06 00:13:46;;;;;;;;;;;16.90;50.30;;;;;;8356250;28;20270;-41
2022/11/06 00:17:48;;;;;;;;;;;16.90;50.30;;;;;;8362748;28;19917;-41
2022/11/06 00:21:48;;;;;;;;;;;16.90;50.30;;;;;;8362129;28;20296;-41
2022/11/06 00:25:54;;;;;;;;;;;16.90;50.30;;;;;;8362562;28;19921;-41
2022/11/06 00:29:55;;;;;;;;;;;16.90;50.30;;;;;;8347875;28;19971;-41
2022/11/06 00:33:56;;;;;;;;;;;16.90;50.30;;;;;;8355355;28;20003;-41
2022/11/06 00:37:56;;;;;;;;;;;16.90;50.40;;;;;;8362423;28;19921;-41
2022/11/06 00:41:57;;;;;;;;;;;16.90;50.40;;;;;;8367222;28;19924;-42
2022/11/06 00:46:05;;;;;;;;;;;16.80;50.30;;;;;;8367963;28;19928;-41
2022/11/06 00:50:06;;;;;;;;;;;16.80;50.30;;;;;;8368686;28;19913;-41
2022/11/06 00:54:08;;;;;;;;;;;16.80;50.30;;;;;;8368054;28;20343;-41
2022/11/06 00:58:08;;;;;;;;;;;16.80;50.20;;;;;;8368294;28;20356;-42
2022/11/06 01:02:09;;;;;;;;;;;16.80;50.20;;;;;;8368220;28;19927;-42
2022/11/06 01:06:09;;;;;;;;;;;16.80;50.30;;;;;;8360786;28;19925;-41
2022/11/06 01:10:10;;;;;;;;;;;16.80;50.20;;;;;;8365266;28;20219;-42
2022/11/06 01:14:11;;;;;;;;;;;16.80;50.30;;;;;;8363734;28;19923;-42
2022/11/06 01:18:12;;;;;;;;;;;16.80;50.00;;;;;;8360053;28;19917;-41
2022/11/06 01:22:12;;;;;;;;;;;16.60;46.90;;;;;;8356990;28;19923;-43
2022/11/06 01:26:13;;;;;;;;;;;16.50;48.70;;;;;;8365370;28;20000;-42
2022/11/06 01:30:14;;;;;;;;;;;16.60;48.40;;;;;;8334092;28;19917;-42
2022/11/06 01:34:15;;;;;;;;;;;16.60;48.60;;;;;;8334175;28;20401;-42
2022/11/06 01:38:16;;;;;;;;;;;16.70;48.90;;;;;;8340482;28;19917;-42
2022/11/06 01:42:18;;;;;;;;;;;16.70;49.10;;;;;;8365824;28;19932;-42
2022/11/06 01:46:20;;;;;;;;;;;16.70;49.20;;;;;;8366238;28;19932;-42
2022/11/06 01:50:20;;;;;;;;;;;16.70;49.10;;;;;;8343787;28;19970;-42
2022/11/06 01:54:22;;;;;;;;;;;16.80;49.40;;;;;;8361654;28;19916;-42
2022/11/06 01:58:24;;;;;;;;;;;16.70;49.50;;;;;;8349723;28;20366;-42
2022/11/06 02:02:24;;;;;;;;;;;16.70;49.60;;;;;;8358569;28;19916;-42
2022/11/06 02:06:25;;;;;;;;;;;16.80;49.60;;;;;;8366312;28;19929;-43
2022/11/06 02:10:26;;;;;;;;;;;16.70;49.70;;;;;;8364834;28;19916;-43
2022/11/06 02:14:37;;;;;;;;;;;16.70;49.80;;;;;;8364770;28;19920;-43
2022/11/06 02:18:47;;;;;;;;;;;16.70;49.90;;;;;;8364510;28;19923;-42
2022/11/06 02:23:02;;;;;;;;;;;16.80;50.00;;;;;;8353842;28;19978;-42
2022/11/06 02:27:13;;;;;;;;;;;16.70;49.90;;;;;;8343370;28;19925;-42
2022/11/06 02:31:16;;;;;;;;;;;16.70;50.00;;;;;;8351241;28;19917;-42
2022/11/06 02:35:20;;;;;;;;;;;16.70;50.00;;;;;;8334320;28;20350;-43
2022/11/06 02:39:22;;;;;;;;;;;16.70;50.10;;;;;;8357915;28;20320;-42
2022/11/06 02:43:26;;;;;;;;;;;16.70;50.20;;;;;;8349766;28;19917;-42
2022/11/06 02:47:28;;;;;;;;;;;16.70;50.30;;;;;;8346917;28;19921;-42
2022/11/06 02:51:30;;;;;;;;;;;16.70;50.20;;;;;;8358048;28;20468;-43
2022/11/06 02:55:39;;;;;;;;;;;16.70;50.20;;;;;;8332920;28;19917;-42
2022/11/06 02:59:39;;;;;;;;;;;16.70;50.20;;;;;;8344447;28;19956;-43
2022/11/06 03:03:44;;;;;;;;;;;16.70;50.10;;;;;;8362643;28;19925;-42
2022/11/06 03:08:07;;;;;;;;;;;16.70;50.10;;;;;;8355052;28;20004;-43
2022/11/06 03:12:28;;;;;;;;;;;16.70;50.10;;;;;;8343968;28;19963;-42
2022/11/06 03:16:47;;;;;;;;;;;16.70;50.20;;;;;;8362651;28;19917;-43
2022/11/06 03:20:53;;;;;;;;;;;16.70;50.30;;;;;;8362715;28;19924;-42
2022/11/06 03:25:12;;;;;;;;;;;16.70;50.30;;;;;;8338409;28;20332;-42
2022/11/06 03:29:20;;;;;;;;;;;16.70;50.30;;;;;;8334742;28;19917;-42
2022/11/06 03:33:24;;;;;;;;;;;16.70;50.30;;;;;;8362160;28;19974;-42
2022/11/06 03:37:29;;;;;;;;;;;16.70;50.40;;;;;;8358781;28;19917;-42
2022/11/06 03:41:37;;;;;;;;;;;16.60;50.40;;;;;;8339984;28;19996;-43
2022/11/06 03:45:39;;;;;;;;;;;16.60;50.30;;;;;;8362822;28;19960;-43
2022/11/06 03:49:45;;;;;;;;;;;16.60;50.30;;;;;;8352229;28;19917;-44
2022/11/06 03:53:51;;;;;;;;;;;16.60;50.40;;;;;;8348465;28;20020;-43
2022/11/06 03:57:54;;;;;;;;;;;16.60;50.40;;;;;;8335842;28;19971;-43
2022/11/06 04:01:56;;;;;;;;;;;16.60;50.40;;;;;;8361267;28;20343;-43
2022/11/06 04:06:03;;;;;;;;;;;16.60;50.40;;;;;;8362514;28;19932;-42
2022/11/06 04:14:26;;;;;;;;;;;16.60;50.40;;;;;;8368032;28;19944;-43
2022/11/06 04:18:26;;;;;;;;;;;16.60;50.40;;;;;;8367368;28;19933;-42
2022/11/06 04:22:26;;;;;;;;;;;16.60;50.40;;;;;;8367004;28;19984;-42
2022/11/06 04:26:35;;;;;;;;;;;16.60;50.40;;;;;;8336576;28;20297;-42
2022/11/06 04:31:04;;;;;;;;;;;16.60;50.40;;;;;;8345297;28;19923;-42
2022/11/06 04:35:08;;;;;;;;;;;16.60;50.90;;;;;;8367248;28;19959;-43
2022/11/06 04:39:11;;;;;;;;;;;16.60;50.50;;;;;;8352378;28;19917;-43
2022/11/06 04:43:31;;;;;;;;;;;16.60;50.40;;;;;;8359752;28;19917;-43
2022/11/06 04:47:31;;;;;;;;;;;16.60;50.40;;;;;;8366792;28;19935;-42
2022/11/06 04:51:34;;;;;;;;;;;16.60;50.40;;;;;;8346591;28;19917;-42
2022/11/06 04:55:44;;;;;;;;;;;16.60;50.40;;;;;;8361911;28;19959;-43
2022/11/06 04:59:44;;;;;;;;;;;16.60;50.40;;;;;;8368573;28;19924;-42
2022/11/06 05:03:45;;;;;;;;;;;16.60;50.40;;;;;;8355964;28;19925;-43
2022/11/06 05:07:45;;;;;;;;;;;16.60;50.30;;;;;;8352698;28;19917;-43
2022/11/06 05:11:45;;;;;;;;;;;16.70;50.30;;;;;;8362950;28;19979;-42
2022/11/06 05:15:46;;;;;;;;;;;16.70;50.30;;;;;;8366399;28;19932;-44
2022/11/06 05:19:46;;;;;;;;;;;16.70;50.30;;;;;;8366945;28;19932;-43
2022/11/06 05:23:47;;;;;;;;;;;16.70;50.20;;;;;;8365385;28;20017;-43
2022/11/06 05:27:47;;;;;;;;;;;16.70;50.20;;;;;;8366409;28;19959;-44
2022/11/06 05:31:48;;;;;;;;;;;16.70;50.30;;;;;;8365560;28;19917;-42
2022/11/06 05:35:48;;;;;;;;;;;16.70;50.30;;;;;;8367163;28;20433;-42
2022/11/06 05:39:49;;;;;;;;;;;16.70;50.30;;;;;;8363114;28;20339;-43
2022/11/06 05:43:49;;;;;;;;;;;16.60;50.20;;;;;;8362914;28;20374;-43
2022/11/06 05:47:50;;;;;;;;;;;16.70;50.30;;;;;;8365992;28;19923;-43
2022/11/06 05:51:50;;;;;;;;;;;16.70;50.30;;;;;;8364168;28;19917;-42
2022/11/06 05:55:50;;;;;;;;;;;16.70;50.40;;;;;;8342743;28;19917;-42
2022/11/06 05:59:51;;;;;;;;;;;16.70;50.40;;;;;;8364958;28;19956;-42
2022/11/06 06:03:51;;;;;;;;;;;16.70;50.50;;;;;;8358436;28;19925;-42
2022/11/06 06:07:52;;;;;;;;;;;16.70;50.50;;;;;;8345062;28;20315;-42
2022/11/06 06:11:52;;;;;;;;;;;16.70;50.40;;;;;;8363936;28;19963;-43
2022/11/06 06:15:53;;;;;;;;;;;16.70;50.30;;;;;;8365742;28;20484;-42
2022/11/06 06:19:53;;;;;;;;;;;16.70;50.40;;;;;;8364959;28;20384;-44
2022/11/06 06:23:54;;;;;;;;;;;16.70;50.70;;;;;;8363955;28;20274;-42
2022/11/06 06:27:55;;;;;;;;;;;16.70;50.80;;;;;;8365328;28;19913;-41
2022/11/06 06:31:55;;;;;;;;;;;16.70;50.50;;;;;;8365442;28;19940;-42
2022/11/06 06:35:56;;;;;;;;;;;16.70;50.00;;;;;;8365248;28;19917;-42
2022/11/06 06:39:56;;;;;;;;;;;16.60;49.90;;;;;;8363988;28;19960;-42
2022/11/06 06:43:57;;;;;;;;;;;16.60;49.90;;;;;;8365289;28;19928;-43
2022/11/06 06:48:01;;;;;;;;;;;16.60;49.90;;;;;;8365303;28;19921;-42
2022/11/06 06:52:01;;;;;;;;;;;16.60;49.90;;;;;;8362234;28;19924;-43
2022/11/06 06:56:01;;;;;;;;;;;16.60;49.70;;;;;;8341613;28;19917;-42
2022/11/06 07:00:02;;;;;;;;;;;16.70;50.50;;;;;;8335148;28;20007;-42
2022/11/06 07:04:03;;;;;;;;;;;16.70;50.70;;;;;;8357957;28;20000;-42
2022/11/06 07:08:04;;;;;;;;;;;16.70;50.80;;;;;;8332037;28;19996;-43
2022/11/06 07:12:04;;;;;;;;;;;16.70;50.20;;;;;;8330916;28;19924;-41
2022/11/06 07:16:06;;;;;;;;;;;16.70;50.10;;;;;;8331284;28;19917;-41
2022/11/06 07:20:07;;;;;;;;;;;16.70;50.20;;;;;;8359046;28;20373;-42
2022/11/06 07:24:07;;;;;;;;;;;16.70;50.30;;;;;;8357250;28;19982;-43
2022/11/06 07:28:08;;;;;;;;;;;16.70;50.50;;;;;;8364016;28;19988;-43
2022/11/06 07:32:08;;;;;;;;;;;16.70;50.60;;;;;;8360458;28;20413;-42
2022/11/06 07:36:12;;;;;;;;;;;16.70;50.60;;;;;;8358105;28;20273;-42
2022/11/06 07:40:13;;;;;;;;;;;16.70;50.80;;;;;;8350085;28;19917;-42
2022/11/06 07:44:14;;;;;;;;;;;16.80;51.10;;;;;;8330347;28;19976;-42
2022/11/06 07:48:14;;;;;;;;;;;16.80;51.00;;;;;;8330166;28;19913;-42
2022/11/06 07:52:14;;;;;;;;;;;16.80;50.80;;;;;;8353246;28;19924;-42
2022/11/06 07:56:15;;;;;;;;;;;16.80;50.90;;;;;;8342045;28;20107;-42
2022/11/06 08:00:15;;;;;;;;;;;16.90;51.10;;;;;;8329731;28;19939;-43
2022/11/06 08:04:16;;;;;;;;;;;16.90;50.90;;;;;;8357916;28;20410;-43
2022/11/06 08:08:17;;;;;;;;;;;16.90;51.10;;;;;;8361442;28;20313;-43
2022/11/06 08:12:17;;;;;;;;;;;16.90;51.10;;;;;;8359620;28;19920;-43
2022/11/06 08:16:17;;;;;;;;;;;16.90;51.10;;;;;;8346232;28;19921;-43
2022/11/06 08:20:18;;;;;;;;;;;17.00;51.20;;;;;;8357498;28;20369;-43
2022/11/06 08:24:18;;;;;;;;;;;17.00;51.10;;;;;;8357421;28;19925;-43
2022/11/06 08:28:19;;;;;;;;;;;16.90;50.30;;;;;;8359849;28;19923;-43
2022/11/06 08:32:19;;;;;;;;;;;16.80;49.90;;;;;;8362576;28;20003;-43
2022/11/06 08:36:20;;;;;;;;;;;16.80;50.20;;;;;;8362139;28;19920;-42
2022/11/06 08:40:20;;;;;;;;;;;16.80;50.50;;;;;;8362480;28;19917;-43
2022/11/06 08:44:22;;;;;;;;;;;16.70;49.70;;;;;;8360857;28;19939;-44
2022/11/06 08:48:22;;;;;;;;;;;16.70;50.00;;;;;;8359783;28;20418;-44
2022/11/06 08:52:23;;;;;;;;;;;16.70;50.40;;;;;;8345644;28;19976;-44
2022/11/06 08:56:23;;;;;;;;;;;16.70;50.10;;;;;;8348338;28;20007;-44
2022/11/06 09:00:24;;;;;;;;;;;16.70;50.20;;;;;;8358877;28;19917;-45
2022/11/06 09:04:24;;;;;;;;;;;16.70;50.50;;;;;;8364062;28;19925;-43
2022/11/06 09:08:25;;;;;;;;;;;16.80;50.60;;;;;;8366975;28;19923;-45
2022/11/06 09:12:25;;;;;;;;;;;16.80;51.10;;;;;;8340557;28;19924;-43
2022/11/06 09:16:26;;;;;;;;;;;16.80;50.70;;;;;;8352519;28;19931;-44
2022/11/06 09:20:27;;;;;;;;;;;16.90;51.20;;;;;;8338627;28;19918;-44
2022/11/06 09:24:27;;;;;;;;;;;16.80;50.30;;;;;;8368875;28;20392;-44
2022/11/06 09:28:28;;;;;;;;;;;16.80;50.20;;;;;;8388479;28;20303;-42
2022/11/06 09:32:28;;;;;;;;;;;16.70;50.40;;;;;;8356655;28;19917;-44
2022/11/06 09:36:29;;;;;;;;;;;16.70;50.00;;;;;;8333925;28;19932;-44
2022/11/06 09:40:32;;;;;;;;;;;16.80;50.30;;;;;;8334479;28;19920;-45
2022/11/06 09:44:47;;;;;;;;;;;16.70;50.40;;;;;;8333910;28;20421;-45
2022/11/06 09:48:55;;;;;;;;;;;16.70;50.60;;;;;;8333870;28;19966;-43
2022/11/06 09:53:05;;;;;;;;;;;16.80;50.50;;;;;;8334115;28;19917;-43
2022/11/06 09:57:13;;;;;;;;;;;16.80;50.40;;;;;;8333365;28;19914;-44
2022/11/06 10:01:19;;;;;;;;;;;16.80;50.30;;;;;;8333431;28;19923;-43
2022/11/06 10:05:22;;;;;;;;;;;16.80;50.20;;;;;;8333484;28;20032;-43
2022/11/06 10:09:23;;;;;;;;;;;16.80;50.10;;;;;;8333189;28;19921;-43
2022/11/06 10:13:29;;;;;;;;;;;16.80;50.10;;;;;;8332054;28;19952;-43
2022/11/06 10:17:37;;;;;;;;;;;16.80;50.10;;;;;;8333090;28;19917;-42
2022/11/06 10:21:40;;;;;;;;;;;16.80;50.10;;;;;;8332570;28;19917;-43
2022/11/06 10:25:41;;;;;;;;;;;16.80;50.10;;;;;;8332647;28;19932;-43
2022/11/06 10:29:54;;;;;;;;;;;16.80;50.10;;;;;;8332811;28;20274;-44
2022/11/06 10:34:05;;;;;;;;;;;16.80;50.20;;;;;;8332439;28;20328;-44
2022/11/06 10:38:11;;;;;;;;;;;16.80;50.10;;;;;;8359887;28;20354;-43
2022/11/06 10:42:15;;;;;;;;;;;16.80;50.10;;;;;;8364729;28;19940;-44
2022/11/06 10:46:18;;;;;;;;;;;16.80;50.30;;;;;;8364979;28;19971;-43
2022/11/06 10:50:18;;;;;;;;;;;16.90;50.20;;;;;;8365038;28;19924;-44
2022/11/06 10:54:24;;;;;;;;;;;16.90;50.10;;;;;;8364656;28;19987;-44
2022/11/06 10:58:32;;;;;;;;;;;16.90;50.10;;;;;;8364751;28;19921;-43
2022/11/06 11:02:34;;;;;;;;;;;16.80;50.00;;;;;;8364721;28;19917;-43
2022/11/06 11:06:37;;;;;;;;;;;16.90;50.10;;;;;;8364552;28;20336;-43
2022/11/06 11:10:38;;;;;;;;;;;16.90;50.10;;;;;;8348232;28;19948;-44
2022/11/06 11:14:38;;;;;;;;;;;16.90;50.00;;;;;;8364661;28;20293;-44
2022/11/06 11:18:38;;;;;;;;;;;16.90;50.00;;;;;;8363601;28;20008;-45
2022/11/06 11:22:39;;;;;;;;;;;16.90;50.00;;;;;;8363701;28;19917;-44
2022/11/06 11:26:45;;;;;;;;;;;16.90;50.00;;;;;;8362992;28;19921;-44
2022/11/06 11:30:50;;;;;;;;;;;16.90;50.00;;;;;;8362930;28;19924;-44
2022/11/06 11:34:52;;;;;;;;;;;16.90;50.00;;;;;;8363798;28;19913;-43
2022/11/06 11:38:53;;;;;;;;;;;16.90;50.00;;;;;;8363460;28;20336;-44
2022/11/06 11:42:53;;;;;;;;;;;16.90;50.10;;;;;;8363392;28;19924;-44
2022/11/06 11:46:54;;;;;;;;;;;16.90;50.10;;;;;;8363463;28;20282;-45
2022/11/06 11:50:54;;;;;;;;;;;16.90;50.00;;;;;;8363344;28;20393;-45
2022/11/06 11:54:55;;;;;;;;;;;16.90;50.10;;;;;;8363019;28;19952;-42
2022/11/06 11:58:57;;;;;;;;;;;16.90;50.10;;;;;;8363096;28;19917;-43
2022/11/06 12:02:59;;;;;;;;;;;16.90;50.10;;;;;;8363305;28;20331;-44
2022/11/06 12:07:01;;;;;;;;;;;16.90;50.10;;;;;;8362813;28;19925;-44
2022/11/06 12:11:02;;;;;;;;;;;16.90;50.00;;;;;;8363131;28;19912;-43
2022/11/06 12:15:09;;;;;;;;;;;16.90;50.00;;;;;;8362738;28;19990;-43
2022/11/06 12:19:09;;;;;;;;;;;16.90;50.10;;;;;;8362707;28;19963;-43
2022/11/06 12:23:13;;;;;;;;;;;16.90;50.00;;;;;;8362930;28;20602;-44
2022/11/06 12:27:17;;;;;;;;;;;16.90;50.10;;;;;;8362302;28;19921;-43
2022/11/06 12:31:23;;;;;;;;;;;16.90;50.00;;;;;;8362844;28;20031;-45
2022/11/06 12:35:27;;;;;;;;;;;16.90;50.10;;;;;;8363358;28;19917;-43
2022/11/06 12:39:31;;;;;;;;;;;16.90;50.10;;;;;;8368226;28;19960;-44
2022/11/06 12:43:42;;;;;;;;;;;16.90;50.10;;;;;;8368865;28;19917;-44
2022/11/06 12:47:54;;;;;;;;;;;16.90;50.10;;;;;;8368754;28;20336;-44
2022/11/06 12:52:13;;;;;;;;;;;16.90;50.10;;;;;;8368237;28;20373;-43
2022/11/06 12:56:14;;;;;;;;;;;16.90;50.10;;;;;;8368686;28;20423;-44
2022/11/06 13:00:23;;;;;;;;;;;16.90;50.10;;;;;;8368310;28;19917;-45
2022/11/06 13:04:43;;;;;;;;;;;16.90;50.10;;;;;;8368469;28;20358;-45
2022/11/06 13:08:49;;;;;;;;;;;16.90;50.10;;;;;;8367938;28;20420;-44
2022/11/06 13:13:18;;;;;;;;;;;16.90;50.00;;;;;;8367578;28;19923;-44
2022/11/06 13:17:25;;;;;;;;;;;16.90;50.10;;;;;;8362897;28;19916;-44
2022/11/06 13:21:28;;;;;;;;;;;16.90;50.10;;;;;;8366808;28;19917;-44
2022/11/06 13:25:44;;;;;;;;;;;16.90;50.10;;;;;;8367979;28;19959;-44
2022/11/06 13:29:45;;;;;;;;;;;16.90;50.00;;;;;;8367100;28;20489;-44
2022/11/06 13:33:48;;;;;;;;;;;16.90;50.00;;;;;;8366665;28;19921;-43
2022/11/06 13:37:48;;;;;;;;;;;17.00;50.00;;;;;;8367080;28;20475;-43
2022/11/06 13:41:50;;;;;;;;;;;17.00;50.00;;;;;;8366932;28;19917;-44
2022/11/06 13:45:53;;;;;;;;;;;16.90;50.00;;;;;;8366019;28;19924;-46
2022/11/06 13:50:03;;;;;;;;;;;17.00;50.00;;;;;;8366647;28;19916;-44
2022/11/06 13:54:11;;;;;;;;;;;17.00;50.00;;;;;;8366307;28;20422;-43
2022/11/06 13:58:23;;;;;;;;;;;17.00;50.00;;;;;;8366748;28;19924;-44
2022/11/06 14:02:36;;;;;;;;;;;17.00;49.90;;;;;;8366255;28;19920;-43
2022/11/06 14:06:38;;;;;;;;;;;17.00;49.90;;;;;;8337551;28;20437;-45
2022/11/06 14:10:46;;;;;;;;;;;17.00;49.90;;;;;;8366344;28;19923;-44
2022/11/06 14:14:47;;;;;;;;;;;17.10;49.90;;;;;;8366001;28;20328;-44
2022/11/06 14:18:58;;;;;;;;;;;17.00;49.80;;;;;;8365306;28;20074;-44
2022/11/06 14:23:17;;;;;;;;;;;17.10;49.80;;;;;;8365843;28;19921;-42
2022/11/06 14:27:17;;;;;;;;;;;17.10;49.80;;;;;;8363658;28;19936;-43
2022/11/06 14:31:36;;;;;;;;;;;17.00;49.70;;;;;;8366100;28;20281;-45
2022/11/06 14:35:36;;;;;;;;;;;17.00;49.80;;;;;;8365746;28;19923;-44
2022/11/06 14:39:55;;;;;;;;;;;17.00;49.80;;;;;;8364782;28;20385;-45
2022/11/06 14:43:56;;;;;;;;;;;17.00;49.80;;;;;;8365155;28;19927;-44
2022/11/06 14:47:57;;;;;;;;;;;17.00;49.80;;;;;;8364962;28;19924;-44
2022/11/06 14:52:03;;;;;;;;;;;17.00;49.90;;;;;;8364402;28;19921;-44
2022/11/06 14:56:07;;;;;;;;;;;17.00;49.90;;;;;;8368963;28;19913;-43
2022/11/06 15:00:12;;;;;;;;;;;17.00;49.80;;;;;;8363494;28;20340;-45
2022/11/06 15:04:18;;;;;;;;;;;17.00;49.80;;;;;;8364605;28;19921;-43
2022/11/06 15:08:37;;;;;;;;;;;17.00;49.90;;;;;;8364421;28;19920;-44
2022/11/06 15:12:56;;;;;;;;;;;17.00;49.90;;;;;;8363820;28;19939;-43
2022/11/06 15:17:09;;;;;;;;;;;17.00;49.90;;;;;;8364107;28;19939;-45
2022/11/06 15:21:16;;;;;;;;;;;17.00;49.90;;;;;;8365961;28;19944;-45
2022/11/06 15:25:20;;;;;;;;;;;17.00;49.80;;;;;;8363889;28;19932;-45
2022/11/06 15:29:33;;;;;;;;;;;17.00;49.90;;;;;;8364080;28;19927;-44
2022/11/06 15:33:45;;;;;;;;;;;17.00;49.90;;;;;;8363783;28;19917;-45
2022/11/06 15:37:48;;;;;;;;;;;17.00;49.90;;;;;;8363589;28;19923;-44
2022/11/06 15:41:50;;;;;;;;;;;17.00;49.90;;;;;;8363789;28;19917;-44
2022/11/06 15:46:04;;;;;;;;;;;17.00;49.90;;;;;;8363033;28;20078;-43
2022/11/06 15:50:11;;;;;;;;;;;17.00;49.90;;;;;;8363488;28;19916;-43
2022/11/06 15:54:12;;;;;;;;;;;17.00;49.90;;;;;;8362799;28;19999;-43
2022/11/06 15:58:23;;;;;;;;;;;17.00;50.00;;;;;;8363181;28;19917;-44
2022/11/06 16:02:23;;;;;;;;;;;17.00;49.90;;;;;;8362953;28;19921;-44
2022/11/06 16:06:24;;;;;;;;;;;17.00;49.90;;;;;;8362588;28;19994;-45
2022/11/06 16:10:25;;;;;;;;;;;17.00;49.90;;;;;;8363371;28;19952;-45
2022/11/06 16:14:26;;;;;;;;;;;17.00;50.00;;;;;;8367485;28;19917;-45
2022/11/06 16:18:32;;;;;;;;;;;17.00;50.00;;;;;;8367333;28;19916;-45
2022/11/06 16:22:33;;;;;;;;;;;17.00;50.00;;;;;;8369529;28;19987;-43
2022/11/06 16:26:34;;;;;;;;;;;17.00;49.90;;;;;;8369763;28;20335;-42
2022/11/06 16:30:34;;;;;;;;;;;17.00;49.90;;;;;;8368955;28;19916;-44
2022/11/06 16:34:37;;;;;;;;;;;17.00;50.00;;;;;;8369141;28;19996;-44
2022/11/06 16:38:42;;;;;;;;;;;17.00;50.00;;;;;;8369165;28;20305;-44
2022/11/06 16:42:58;;;;;;;;;;;17.00;50.00;;;;;;8368613;28;19924;-45
2022/11/06 16:47:09;;;;;;;;;;;17.00;50.00;;;;;;8369100;28;20016;-44
2022/11/06 16:51:14;;;;;;;;;;;17.00;50.00;;;;;;8368458;28;20046;-44
2022/11/06 16:55:15;;;;;;;;;;;17.00;50.00;;;;;;8368942;28;19917;-43
2022/11/06 16:59:21;;;;;;;;;;;16.90;49.90;;;;;;8368661;28;19919;-44
2022/11/06 17:03:22;;;;;;;;;;;17.00;49.90;;;;;;8365468;28;19917;-43
2022/11/06 17:07:22;;;;;;;;;;;16.90;49.90;;;;;;8368169;28;19924;-43
2022/11/06 17:11:22;;;;;;;;;;;17.00;49.90;;;;;;8367893;28;20004;-44
2022/11/06 17:15:23;;;;;;;;;;;17.00;49.90;;;;;;8367329;28;20300;-44
2022/11/06 17:19:24;;;;;;;;;;;17.00;49.90;;;;;;8368024;28;20492;-43
2022/11/06 17:23:25;;;;;;;;;;;17.00;49.90;;;;;;8366882;28;19927;-43
2022/11/06 17:27:26;;;;;;;;;;;16.90;49.90;;;;;;8367009;28;20426;-45
2022/11/06 17:31:26;;;;;;;;;;;16.90;49.90;;;;;;8367765;28;19917;-44
2022/11/06 17:35:27;;;;;;;;;;;16.90;49.80;;;;;;8367386;28;19923;-43
2022/11/06 17:39:27;;;;;;;;;;;16.90;49.80;;;;;;8366732;28;19920;-44
2022/11/06 17:43:28;;;;;;;;;;;16.90;49.90;;;;;;8366851;28;20400;-44
2022/11/06 17:47:28;;;;;;;;;;;16.90;49.80;;;;;;8367279;28;19932;-44
2022/11/06 17:55:47;;;;;;;;;;;16.90;49.90;;;;;;8371958;28;19982;-43
2022/11/06 17:59:48;;;;;;;;;;;16.90;49.90;;;;;;8366595;28;19921;-44
2022/11/06 18:03:48;;;;;;;;;;;16.90;49.90;;;;;;8366123;28;19966;-42
2022/11/06 18:07:49;;;;;;;;;;;16.90;49.90;;;;;;8366069;28;19916;-43
2022/11/06 18:11:50;;;;;;;;;;;17.00;49.90;;;;;;8366639;28;20396;-42
2022/11/06 18:15:52;;;;;;;;;;;16.90;49.90;;;;;;8365583;28;20292;-43
2022/11/06 18:19:52;;;;;;;;;;;16.90;49.90;;;;;;8366021;28;19952;-43
2022/11/06 18:23:53;;;;;;;;;;;17.00;49.90;;;;;;8365875;28;19923;-44
2022/11/06 18:27:53;;;;;;;;;;;16.90;49.90;;;;;;8365425;28;19951;-44
2022/11/06 18:31:54;;;;;;;;;;;16.90;49.90;;;;;;8365386;28;19924;-44
2022/11/06 18:36:02;;;;;;;;;;;16.90;49.80;;;;;;8364474;28;20332;-43
2022/11/06 18:40:02;;;;;;;;;;;16.90;49.90;;;;;;8364693;28;19917;-43
2022/11/06 18:44:03;;;;;;;;;;;17.00;49.90;;;;;;8365093;28;19920;-43
2022/11/06 18:48:04;;;;;;;;;;;16.90;49.80;;;;;;8364826;28;20381;-44
2022/11/06 18:52:04;;;;;;;;;;;16.90;49.80;;;;;;8332146;28;19913;-43
2022/11/06 18:56:12;;;;;;;;;;;16.90;49.80;;;;;;8331725;28;19924;-44
2022/11/06 19:00:12;;;;;;;;;;;16.90;49.80;;;;;;8331292;28;19924;-45
2022/11/06 19:04:13;;;;;;;;;;;16.90;49.90;;;;;;8331666;28;19948;-45
2022/11/06 19:08:13;;;;;;;;;;;16.90;49.90;;;;;;8331784;28;19920;-44
2022/11/06 19:12:14;;;;;;;;;;;16.90;49.90;;;;;;8331293;28;19929;-44
2022/11/06 19:16:15;;;;;;;;;;;16.90;49.90;;;;;;8331485;28;19917;-44
2022/11/06 19:20:16;;;;;;;;;;;16.90;49.90;;;;;;8331089;28;19923;-43
2022/11/06 19:24:16;;;;;;;;;;;16.90;49.90;;;;;;8330419;28;20238;-43
2022/11/06 19:28:17;;;;;;;;;;;16.90;49.90;;;;;;8331291;28;19913;-44
2022/11/06 19:32:17;;;;;;;;;;;16.90;49.90;;;;;;8331057;28;19923;-44
2022/11/06 19:36:18;;;;;;;;;;;16.90;49.90;;;;;;8330512;28;20416;-44
2022/11/06 19:40:19;;;;;;;;;;;16.90;49.90;;;;;;8330737;28;19921;-45
2022/11/06 19:44:19;;;;;;;;;;;16.90;49.90;;;;;;8330494;28;19932;-43
2022/11/06 19:48:20;;;;;;;;;;;16.90;50.00;;;;;;8330103;28;20399;-43
2022/11/06 19:52:20;;;;;;;;;;;16.90;50.00;;;;;;8330408;28;19921;-43
2022/11/06 19:56:21;;;;;;;;;;;16.90;49.90;;;;;;8330588;28;19963;-43
2022/11/06 20:00:22;;;;;;;;;;;16.90;50.00;;;;;;8329742;28;19917;-43
2022/11/06 20:04:22;;;;;;;;;;;16.90;50.00;;;;;;8330244;28;19933;-43
2022/11/06 20:08:24;;;;;;;;;;;16.90;50.00;;;;;;8347489;28;21300;-45
2022/11/06 20:12:25;;;;;;;;;;;16.90;50.00;;;;;;8362537;28;19916;-44
2022/11/06 20:16:26;;;;;;;;;;;16.90;50.00;;;;;;8363001;28;19917;-45
2022/11/06 20:20:26;;;;;;;;;;;16.90;50.00;;;;;;8362395;28;19920;-46
2022/11/06 20:24:27;;;;;;;;;;;16.90;50.00;;;;;;8362156;28;19924;-46
2022/11/06 20:28:28;;;;;;;;;;;16.90;50.00;;;;;;8363132;28;20293;-44
2022/11/06 20:32:28;;;;;;;;;;;16.90;50.00;;;;;;8362665;28;19925;-43
2022/11/06 20:36:29;;;;;;;;;;;16.90;50.00;;;;;;8361926;28;19917;-44
2022/11/06 20:40:30;;;;;;;;;;;16.90;50.00;;;;;;8362482;28;20313;-44
2022/11/06 20:44:31;;;;;;;;;;;16.90;50.00;;;;;;8362542;28;19921;-44
2022/11/06 20:48:32;;;;;;;;;;;16.90;50.00;;;;;;8362438;28;19924;-43
2022/11/06 20:52:33;;;;;;;;;;;16.90;50.00;;;;;;8362065;28;20325;-43
2022/11/06 20:56:33;;;;;;;;;;;16.90;50.00;;;;;;8363153;28;20301;-45
2022/11/06 21:00:34;;;;;;;;;;;16.90;50.00;;;;;;8368130;28;19917;-43
2022/11/06 21:04:34;;;;;;;;;;;16.90;50.00;;;;;;8368850;28;20008;-45
2022/11/06 21:08:36;;;;;;;;;;;16.90;50.00;;;;;;8368418;28;19958;-44
2022/11/06 21:12:36;;;;;;;;;;;16.90;50.00;;;;;;8367822;28;20475;-44
2022/11/06 21:16:37;;;;;;;;;;;16.90;50.00;;;;;;8368088;28;19917;-44
2022/11/06 21:20:37;;;;;;;;;;;16.90;50.00;;;;;;8367955;28;19923;-44
2022/11/06 21:24:38;;;;;;;;;;;16.90;50.00;;;;;;8367377;28;20005;-43
2022/11/06 21:28:39;;;;;;;;;;;16.90;50.00;;;;;;8367865;28;19917;-43
2022/11/06 21:32:40;;;;;;;;;;;16.90;50.00;;;;;;8367475;28;19999;-43
2022/11/06 21:36:40;;;;;;;;;;;16.90;50.00;;;;;;8367104;28;20332;-44
2022/11/06 21:40:41;;;;;;;;;;;16.90;50.00;;;;;;8367172;28;20003;-43
2022/11/06 21:44:41;;;;;;;;;;;16.90;50.00;;;;;;8367212;28;19924;-43
2022/11/06 21:48:42;;;;;;;;;;;16.90;50.00;;;;;;8366801;28;19920;-43
2022/11/06 21:57:01;;;;;;;;;;;16.90;50.10;;;;;;8368409;28;19963;-44
2022/11/06 22:01:05;;;;;;;;;;;16.90;50.00;;;;;;8366159;28;19916;-45
2022/11/06 22:05:06;;;;;;;;;;;16.90;50.00;;;;;;8366958;28;19924;-43
2022/11/06 22:09:06;;;;;;;;;;;16.90;50.00;;;;;;8366006;28;20289;-44
2022/11/06 22:13:07;;;;;;;;;;;16.90;50.00;;;;;;8366202;28;19955;-44
2022/11/06 22:17:07;;;;;;;;;;;16.90;50.00;;;;;;8366151;28;19940;-44
2022/11/06 22:21:12;;;;;;;;;;;16.90;50.00;;;;;;8365528;28;19994;-43
2022/11/06 22:25:13;;;;;;;;;;;16.90;50.10;;;;;;8366012;28;19925;-43
2022/11/06 22:29:14;;;;;;;;;;;16.90;50.00;;;;;;8365983;28;19913;-44
2022/11/06 22:33:15;;;;;;;;;;;16.90;50.10;;;;;;8365329;28;19917;-44
2022/11/06 22:37:15;;;;;;;;;;;16.90;50.10;;;;;;8365819;28;19923;-44
2022/11/06 22:41:17;;;;;;;;;;;16.90;50.10;;;;;;8365360;28;19917;-44
2022/11/06 22:45:17;;;;;;;;;;;16.90;50.10;;;;;;8364728;28;20011;-44
2022/11/06 22:49:18;;;;;;;;;;;16.90;50.10;;;;;;8365611;28;19936;-44
2022/11/06 22:53:18;;;;;;;;;;;16.80;50.10;;;;;;8365214;28;20012;-44
2022/11/06 22:57:18;;;;;;;;;;;16.90;50.10;;;;;;8364405;28;19928;-44
2022/11/06 23:01:23;;;;;;;;;;;16.90;50.10;;;;;;8364305;28;19917;-43
2022/11/06 23:05:23;;;;;;;;;;;16.80;50.10;;;;;;8364947;28;19954;-43
2022/11/06 23:09:24;;;;;;;;;;;16.80;50.10;;;;;;8364307;28;19920;-43
2022/11/06 23:13:24;;;;;;;;;;;16.80;50.10;;;;;;8363390;28;19924;-44
2022/11/06 23:17:25;;;;;;;;;;;16.80;50.10;;;;;;8374992;28;19917;-44
2022/11/06 23:21:26;;;;;;;;;;;16.80;50.10;;;;;;8330232;28;19917;-44
2022/11/06 23:25:27;;;;;;;;;;;16.80;50.10;;;;;;8331375;28;19983;-44
2022/11/06 23:29:28;;;;;;;;;;;16.80;50.10;;;;;;8331200;28;20365;-44
2022/11/06 23:33:29;;;;;;;;;;;16.80;50.10;;;;;;8330771;28;19924;-44
2022/11/06 23:37:29;;;;;;;;;;;16.80;50.20;;;;;;8330760;28;19921;-44
2022/11/06 23:41:42;;;;;;;;;;;16.80;50.20;;;;;;8330717;28;19939;-44
2022/11/06 23:45:48;;;;;;;;;;;16.80;50.20;;;;;;8330823;28;19932;-44
2022/11/06 23:49:49;;;;;;;;;;;16.80;50.20;;;;;;8330778;28;20393;-44